Flight Track Log - Related Links

Times and Time Zones

All times are in EDT time to prevent confusion due to time zone crossing. See the N762NC flight status page for this flight to view local times or setup timezone preferences in your user account.

Time Position Orientation Groundspeed Altitude Reporting Facility
EDT Latitude Longitude Course Direction KTS MPH feet Rate Location/Type
Wed 09:53:31 AM 41.9333 -87.9000 180° South 169 194 1,700  Level Chicago TRACON
Wed 09:54:31 AM 41.8833 -87.9000 180° South 218 251 3,900 2,050 Climbing Chicago TRACON
Wed 09:55:31 AM 41.8167 -87.8667 160° South 244 281 5,800 2,054 Climbing Chicago TRACON
Wed 09:56:00 AM 41.5766 -87.7169 169° South  Level Estimated
Wed 09:57:00 AM 41.4694 -87.7169 180° South  Level FlightAware Approximate
Wed 09:57:00 AM 41.7294 -87.7919 147° Southeast 273 314 9,000  Level Chicago Center
Wed 09:58:00 AM 41.3621 -87.7168 180° South  Level FlightAware Approximate
Wed 09:58:02 AM 41.6558 -87.8094 190° South 273 314 11,200  Level Chicago Center
Wed 09:59:05 AM 41.5758 -87.8044 177° South 282 325 12,800 1,584 Climbing Chicago Center
Wed 10:00:07 AM 41.4839 -87.8011 178° South 320 368 14,500 1,597 Climbing Chicago Center
Wed 10:01:09 AM 41.3897 -87.8011 180° South 333 383 16,100 1,597 Climbing Chicago Center
Wed 10:02:11 AM 41.2894 -87.7931 177° South 354 407 17,800 1,306 Climbing Chicago Center
Wed 10:03:13 AM 41.1872 -87.7689 170° South 367 422 18,800 1,258 Climbing Chicago Center
Wed 10:04:15 AM 41.0572 -87.7642 178° South 391 450 20,400 1,597 Climbing Chicago Center
Wed 10:05:17 AM 40.9467 -87.7633 180° South 396 456 22,100 1,452 Climbing Chicago Center
Wed 10:06:19 AM 40.8342 -87.7653 181° South 400 460 23,400 1,258 Climbing Chicago Center
Wed 10:07:21 AM 40.7186 -87.7658 180° South 410 472 24,700 1,161 Climbing Chicago Center
Wed 10:08:23 AM 40.6025 -87.7689 181° South 417 480 25,800 1,113 Climbing Chicago Center
Wed 10:09:25 AM 40.4831 -87.7656 179° South 424 488 27,000 1,104 Climbing Chicago Center
Wed 10:10:28 AM 40.3406 -87.7497 175° South 429 494 28,100 1,104 Climbing Chicago Center
Wed 10:11:30 AM 40.2203 -87.7492 180° South 432 497 29,300 1,068 Climbing Chicago Center
Wed 10:12:26 AM 40.0964 -87.7569 183° South 436 502 30,200 864 Climbing Indianapolis Center
Wed 10:13:28 AM 39.9747 -87.7578 180° South 440 506 31,000 823 Climbing Indianapolis Center
Wed 10:14:30 AM 39.8528 -87.7642 182° South 441 507 31,900 871 Climbing Indianapolis Center
Wed 10:15:32 AM 39.7303 -87.7683 181° South 443 510 32,800 726 Climbing Indianapolis Center
Wed 10:16:34 AM 39.6083 -87.7708 181° South 443 510 33,400 768 Climbing Indianapolis Center
Wed 10:17:37 AM 39.4619 -87.7783 182° South 439 505 34,400 768 Climbing Indianapolis Center
Wed 10:18:39 AM 39.3456 -87.7836 182° South 435 501 35,000 290 Climbing Indianapolis Center
Wed 10:19:41 AM 39.2236 -87.7822 179° South 437 503 35,000  Level Indianapolis Center
Wed 10:20:43 AM 39.1011 -87.7806 179° South 439 505 35,000  Level Indianapolis Center
Wed 10:21:45 AM 38.9781 -87.7775 179° South 441 507 35,000  Level Indianapolis Center
Wed 10:22:47 AM 38.8314 -87.7803 181° South 439 505 35,000  Level Indianapolis Center
Wed 10:23:49 AM 38.7103 -87.7878 183° South 437 503 35,000  Level Indianapolis Center
Wed 10:24:51 AM 38.5894 -87.7608 170° South 443 510 35,000  Level Indianapolis Center
Wed 10:25:53 AM 38.4742 -87.7111 161° South 440 506 35,000  Level Indianapolis Center
Wed 10:26:55 AM 38.3575 -87.6583 160° South 444 511 35,000  Level Indianapolis Center
Wed 10:27:57 AM 38.2422 -87.6064 161° South 441 507 35,000  Level Indianapolis Center
Wed 10:28:59 AM 38.1033 -87.5419 160° South 444 511 35,000  Level Indianapolis Center
Wed 10:30:01 AM 37.9872 -87.4875 160° South 446 513 35,000  Level Indianapolis Center
Wed 10:31:03 AM 37.8717 -87.4322 159° South 446 513 35,000  Level Indianapolis Center
Wed 10:32:05 AM 37.7531 -87.3767 160° South 446 513 35,000  Level Indianapolis Center
Wed 10:33:07 AM 37.6356 -87.3206 159° South 447 514 35,000  Level Indianapolis Center
Wed 10:34:09 AM 37.5183 -87.2656 160° South 446 513 35,000  Level Indianapolis Center
Wed 10:35:12 AM 37.3819 -87.2031 160° South 445 512 35,000  Level Indianapolis Center
Wed 10:36:14 AM 37.2636 -87.1500 160° South 447 514 35,000  Level Indianapolis Center
Wed 10:37:16 AM 37.1478 -87.0931 159° South 444 511 35,000  Level Indianapolis Center
Wed 10:38:18 AM 37.0300 -87.0378 159° South 446 513 35,000  Level Indianapolis Center
Wed 10:39:20 AM 36.9136 -86.9831 159° South 443 510 35,000  Level Indianapolis Center
Wed 10:40:22 AM 36.7953 -86.9297 160° South 446 513 35,000  Level Indianapolis Center
Wed 10:41:24 AM 36.6736 -86.8983 168° South 442 509 35,000  Level Indianapolis Center
Wed 10:42:29 AM 36.5303 -86.8603 168° South 436 502 35,000  Level Memphis Center
Wed 10:43:29 AM 36.4356 -86.8231 162° South 437 503 35,000  Level Memphis Center
Wed 10:44:29 AM 36.2881 -86.7728 165° South 448 516 35,000  Level Memphis Center
Wed 10:45:29 AM 36.1806 -86.7314 163° South 462 532 35,000  Level Memphis Center
Wed 10:46:29 AM 36.0742 -86.6617 152° Southeast 441 507 35,000 -400 Level Memphis Center
Wed 10:47:29 AM 35.9736 -86.5686 143° Southeast 446 513 34,200 -719 Descending Memphis Center
Wed 10:49:16 AM 35.7897 -86.3889 142° Southeast 456 525 33,000 -431 Descending Atlanta Center
Wed 10:50:16 AM 35.6828 -86.3014 146° Southeast 456 525 33,000  Level Atlanta Center
Wed 10:51:16 AM 35.5781 -86.2142 146° Southeast 462 532 33,000  Level Atlanta Center
Wed 10:52:16 AM 35.4856 -86.1378 146° Southeast 462 532 33,000 -99 Level Atlanta Center
Wed 10:53:17 AM 35.3661 -86.0431 147° Southeast 462 532 32,800 -347 Descending Atlanta Center
Wed 10:54:17 AM 35.2692 -85.9747 150° Southeast 455 524 32,300 -958 Descending Atlanta Center
Wed 10:55:16 AM 35.1514 -85.8881 149° Southeast 455 524 30,900 -1,361 Descending Atlanta Center
Wed 10:56:16 AM 35.0442 -85.8044 147° Southeast 455 524 29,600 -1,339 Descending Atlanta Center
Wed 10:57:17 AM 34.9328 -85.7261 150° Southeast 460 529 28,200 -1,400 Descending Atlanta Center
Wed 10:58:16 AM 34.8231 -85.6481 150° Southeast 460 529 26,800 -1,450 Descending Atlanta Center
Wed 10:59:17 AM 34.7114 -85.5650 149° Southeast 460 529 25,300 -1,587 Descending Atlanta Center
Wed 11:00:17 AM 34.6081 -85.4900 149° Southeast 455 524 23,600 -1,966 Descending Atlanta Center
Wed 11:01:16 AM 34.5131 -85.4025 143° Southeast 437 503 21,400 -2,100 Descending Atlanta Center
Wed 11:02:17 AM 34.4264 -85.3181 141° Southeast 422 486 19,400 -2,100 Descending Atlanta Center
Wed 11:03:16 AM 34.3519 -85.2439 141° Southeast 396 456 17,200 -2,975 Descending Atlanta Center
Wed 11:04:16 AM 34.2608 -85.1672 145° Southeast 391 450 13,500 -2,050 Descending Atlanta Center
Wed 11:05:16 AM 34.1800 -85.0883 141° Southeast 382 440 13,100 -200 Descending Atlanta Center
Wed 11:06:16 AM 34.1033 -85.0172 142° Southeast 359 413 13,100 -650 Level Atlanta Center
Wed 11:07:16 AM 34.0247 -84.9461 143° Southeast 338 389 11,800 -1,250 Descending Atlanta Center
Wed 11:08:16 AM 33.9606 -84.8803 140° Southeast 314 361 10,600 -1,050 Descending Atlanta Center
Wed 11:09:16 AM 33.9108 -84.8147 132° Southeast 283 326 9,700 -1,636 Descending Atlanta Center
Wed 11:10:06 AM 33.8500 -84.7833 157° South 272 313 7,600 -1,745 Descending Atlanta TRACON
Wed 11:11:06 AM 33.7833 -84.8000 192° South 242 278 6,500 -900 Descending Atlanta TRACON
Wed 11:12:06 AM 33.7167 -84.8000 180° South 234 269 5,800 -700 Descending Atlanta TRACON
Wed 11:13:06 AM 33.6667 -84.7667 151° Southeast 235 270 5,100 -400 Descending Atlanta TRACON
Wed 11:14:06 AM 33.6500 -84.6833 103° East 215 247 5,000 -368 Descending Atlanta TRACON
Wed 11:15:00 AM 33.6500 -84.6333 90° East 192 221 4,400 -889 Descending Atlanta TRACON
Wed 11:15:54 AM 33.6500 -84.5833 90° East 177 204 3,400 -1,053 Descending Atlanta TRACON
Wed 11:16:54 AM 33.6500 -84.5167 90° East 171 197 2,400 -895 Descending Atlanta TRACON
Wed 11:17:48 AM 33.6500 -84.4833 90° East 140 161 1,700 -600 Descending Atlanta TRACON
Wed 11:18:54 AM 33.6500 -84.4333 90° East 138 159 1,200 -455 Descending Atlanta TRACON

Login

Don't have an account? Register now (free) for customized features, flight alerts, and more!